sensor_id;sensor_type;location;lat;lon;timestamp;temperature;humidity
65470;DHT22;52067;50.710;14.492;2023-02-28T00:00:26;0.20;77.10
65470;DHT22;52067;50.710;14.492;2023-02-28T00:02:52;0.30;76.66
65470;DHT22;52067;50.710;14.492;2023-02-28T00:05:21;0.26;77.09
65470;DHT22;52067;50.710;14.492;2023-02-28T00:07:47;0.02;78.97
65470;DHT22;52067;50.710;14.492;2023-02-28T00:10:16;0.03;79.33
65470;DHT22;52067;50.710;14.492;2023-02-28T00:12:46;-0.23;82.36
65470;DHT22;52067;50.710;14.492;2023-02-28T00:15:11;0.02;81.62
65470;DHT22;52067;50.710;14.492;2023-02-28T00:17:37;0.03;81.19
65470;DHT22;52067;50.710;14.492;2023-02-28T00:20:03;-0.14;80.62
65470;DHT22;52067;50.710;14.492;2023-02-28T00:22:30;-0.09;80.00
65470;DHT22;52067;50.710;14.492;2023-02-28T00:24:55;-0.05;80.50
65470;DHT22;52067;50.710;14.492;2023-02-28T00:27:21;-0.04;79.67
65470;DHT22;52067;50.710;14.492;2023-02-28T00:29:47;-0.29;81.58
65470;DHT22;52067;50.710;14.492;2023-02-28T00:32:12;-0.46;82.08
65470;DHT22;52067;50.710;14.492;2023-02-28T00:34:38;-0.57;82.63
65470;DHT22;52067;50.710;14.492;2023-02-28T00:37:05;-0.39;81.93
65470;DHT22;52067;50.710;14.492;2023-02-28T00:39:32;-0.40;81.03
65470;DHT22;52067;50.710;14.492;2023-02-28T00:41:58;-0.40;80.19
65470;DHT22;52067;50.710;14.492;2023-02-28T00:44:23;-0.52;81.17
65470;DHT22;52067;50.710;14.492;2023-02-28T00:46:48;-0.60;80.80
65470;DHT22;52067;50.710;14.492;2023-02-28T00:49:14;-0.55;80.90
65470;DHT22;52067;50.710;14.492;2023-02-28T00:51:39;-0.52;80.89
65470;DHT22;52067;50.710;14.492;2023-02-28T00:54:04;-0.59;80.83
65470;DHT22;52067;50.710;14.492;2023-02-28T00:56:30;-0.57;80.20
65470;DHT22;52067;50.710;14.492;2023-02-28T00:58:55;-0.72;80.10
65470;DHT22;52067;50.710;14.492;2023-02-28T01:01:21;-0.80;81.01
65470;DHT22;52067;50.710;14.492;2023-02-28T01:03:46;-1.11;83.25
65470;DHT22;52067;50.710;14.492;2023-02-28T01:06:11;-1.28;84.59
65470;DHT22;52067;50.710;14.492;2023-02-28T01:08:37;-1.07;83.53
65470;DHT22;52067;50.710;14.492;2023-02-28T01:11:13;-1.01;83.02
65470;DHT22;52067;50.710;14.492;2023-02-28T01:13:40;-1.08;83.40
65470;DHT22;52067;50.710;14.492;2023-02-28T01:16:06;-1.28;84.14
65470;DHT22;52067;50.710;14.492;2023-02-28T01:18:31;-1.12;83.20
65470;DHT22;52067;50.710;14.492;2023-02-28T01:20:57;-1.28;83.92
65470;DHT22;52067;50.710;14.492;2023-02-28T01:23:23;-1.24;83.92
65470;DHT22;52067;50.710;14.492;2023-02-28T01:25:52;-1.19;83.59
65470;DHT22;52067;50.710;14.492;2023-02-28T01:28:17;-1.27;84.48
65470;DHT22;52067;50.710;14.492;2023-02-28T01:30:47;-1.21;84.19
65470;DHT22;52067;50.710;14.492;2023-02-28T01:33:13;-1.31;83.59
65470;DHT22;52067;50.710;14.492;2023-02-28T01:35:38;-1.28;83.88
65470;DHT22;52067;50.710;14.492;2023-02-28T01:38:03;-1.32;83.59
65470;DHT22;52067;50.710;14.492;2023-02-28T01:40:29;-1.30;83.42
65470;DHT22;52067;50.710;14.492;2023-02-28T01:42:54;-1.44;83.28
65470;DHT22;52067;50.710;14.492;2023-02-28T01:45:30;-1.59;83.80
65470;DHT22;52067;50.710;14.492;2023-02-28T01:48:02;-1.66;84.22
65470;DHT22;52067;50.710;14.492;2023-02-28T01:50:32;-1.70;84.30
65470;DHT22;52067;50.710;14.492;2023-02-28T01:53:02;-1.83;84.09
65470;DHT22;52067;50.710;14.492;2023-02-28T01:55:30;-1.77;83.34
65470;DHT22;52067;50.710;14.492;2023-02-28T01:57:58;-1.90;82.34
65470;DHT22;52067;50.710;14.492;2023-02-28T02:00:26;-1.91;81.64
65470;DHT22;52067;50.710;14.492;2023-02-28T02:02:57;-2.01;81.56
65470;DHT22;52067;50.710;14.492;2023-02-28T02:05:29;-2.41;83.48
65470;DHT22;52067;50.710;14.492;2023-02-28T02:08:00;-2.31;84.51
65470;DHT22;52067;50.710;14.492;2023-02-28T02:10:35;-2.38;84.44
65470;DHT22;52067;50.710;14.492;2023-02-28T02:13:37;-2.31;84.16
65470;DHT22;52067;50.710;14.492;2023-02-28T02:18:52;-2.45;84.15
65470;DHT22;52067;50.710;14.492;2023-02-28T02:24:28;-2.38;85.14
65470;DHT22;52067;50.710;14.492;2023-02-28T02:27:05;-2.51;85.58
65470;DHT22;52067;50.710;14.492;2023-02-28T02:35:21;-2.76;84.68
65470;DHT22;52067;50.710;14.492;2023-02-28T02:40:37;-2.72;84.83
65470;DHT22;52067;50.710;14.492;2023-02-28T02:43:10;-2.66;84.24
65470;DHT22;52067;50.710;14.492;2023-02-28T02:45:40;-2.79;83.70
65470;DHT22;52067;50.710;14.492;2023-02-28T02:48:10;-2.76;83.45
65470;DHT22;52067;50.710;14.492;2023-02-28T02:50:41;-2.80;83.48
65470;DHT22;52067;50.710;14.492;2023-02-28T02:53:09;-2.86;84.09
65470;DHT22;52067;50.710;14.492;2023-02-28T02:55:39;-2.82;84.53
65470;DHT22;52067;50.710;14.492;2023-02-28T02:58:10;-2.99;85.08
65470;DHT22;52067;50.710;14.492;2023-02-28T03:00:41;-3.06;84.65
65470;DHT22;52067;50.710;14.492;2023-02-28T03:03:08;-3.00;84.11
65470;DHT22;52067;50.710;14.492;2023-02-28T03:05:41;-2.99;83.78
65470;DHT22;52067;50.710;14.492;2023-02-28T03:08:07;-2.99;83.71
65470;DHT22;52067;50.710;14.492;2023-02-28T03:10:38;-3.18;83.51
65470;DHT22;52067;50.710;14.492;2023-02-28T03:18:50;-3.17;86.63
65470;DHT22;52067;50.710;14.492;2023-02-28T03:21:40;-3.11;87.17
65470;DHT22;52067;50.710;14.492;2023-02-28T03:24:13;-3.08;87.32
65470;DHT22;52067;50.710;14.492;2023-02-28T03:26:43;-3.17;87.54
65470;DHT22;52067;50.710;14.492;2023-02-28T03:29:24;-3.08;87.68
65470;DHT22;52067;50.710;14.492;2023-02-28T03:32:29;-3.15;87.53
65470;DHT22;52067;50.710;14.492;2023-02-28T03:35:06;-3.21;87.98
65470;DHT22;52067;50.710;14.492;2023-02-28T03:37:37;-3.47;88.39
65470;DHT22;52067;50.710;14.492;2023-02-28T03:40:10;-3.28;88.26
65470;DHT22;52067;50.710;14.492;2023-02-28T03:42:40;-3.55;87.92
65470;DHT22;52067;50.710;14.492;2023-02-28T03:45:18;-3.50;88.15
65470;DHT22;52067;50.710;14.492;2023-02-28T03:50:41;-3.56;86.99
65470;DHT22;52067;50.710;14.492;2023-02-28T03:53:11;-3.44;86.01
65470;DHT22;52067;50.710;14.492;2023-02-28T03:55:45;-3.68;85.70
65470;DHT22;52067;50.710;14.492;2023-02-28T03:58:24;-3.85;86.85
65470;DHT22;52067;50.710;14.492;2023-02-28T04:00:59;-3.81;87.15
65470;DHT22;52067;50.710;14.492;2023-02-28T04:03:32;-3.82;87.06
65470;DHT22;52067;50.710;14.492;2023-02-28T04:05:58;-3.73;87.71
65470;DHT22;52067;50.710;14.492;2023-02-28T04:08:23;-3.66;87.91
65470;DHT22;52067;50.710;14.492;2023-02-28T04:11:22;-3.62;87.97
65470;DHT22;52067;50.710;14.492;2023-02-28T04:13:48;-3.65;88.14
65470;DHT22;52067;50.710;14.492;2023-02-28T04:16:13;-3.69;87.57
65470;DHT22;52067;50.710;14.492;2023-02-28T04:18:39;-3.92;86.38
65470;DHT22;52067;50.710;14.492;2023-02-28T04:21:06;-3.97;85.45
65470;DHT22;52067;50.710;14.492;2023-02-28T04:23:32;-3.96;85.54
65470;DHT22;52067;50.710;14.492;2023-02-28T04:25:57;-4.02;85.65
65470;DHT22;52067;50.710;14.492;2023-02-28T04:28:22;-4.11;85.50
65470;DHT22;52067;50.710;14.492;2023-02-28T04:30:54;-4.17;86.44
65470;DHT22;52067;50.710;14.492;2023-02-28T04:33:20;-4.09;86.29
65470;DHT22;52067;50.710;14.492;2023-02-28T04:35:45;-4.03;86.82
65470;DHT22;52067;50.710;14.492;2023-02-28T04:38:10;-3.89;87.41
65470;DHT22;52067;50.710;14.492;2023-02-28T04:40:36;-3.89;87.99
65470;DHT22;52067;50.710;14.492;2023-02-28T04:43:01;-3.83;87.25
65470;DHT22;52067;50.710;14.492;2023-02-28T04:45:28;-3.92;87.02
65470;DHT22;52067;50.710;14.492;2023-02-28T04:47:57;-3.83;86.03
65470;DHT22;52067;50.710;14.492;2023-02-28T04:50:23;-3.93;85.06
65470;DHT22;52067;50.710;14.492;2023-02-28T04:52:48;-3.92;85.78
65470;DHT22;52067;50.710;14.492;2023-02-28T04:55:14;-3.99;85.35
65470;DHT22;52067;50.710;14.492;2023-02-28T04:57:39;-4.02;85.02
65470;DHT22;52067;50.710;14.492;2023-02-28T05:00:08;-3.96;84.19
65470;DHT22;52067;50.710;14.492;2023-02-28T05:02:37;-4.04;84.27
65470;DHT22;52067;50.710;14.492;2023-02-28T05:05:02;-4.04;84.16
65470;DHT22;52067;50.710;14.492;2023-02-28T05:07:28;-4.00;83.55
65470;DHT22;52067;50.710;14.492;2023-02-28T05:09:53;-4.10;83.82
65470;DHT22;52067;50.710;14.492;2023-02-28T05:12:18;-4.18;84.56
65470;DHT22;52067;50.710;14.492;2023-02-28T05:14:44;-4.11;84.34
65470;DHT22;52067;50.710;14.492;2023-02-28T05:17:09;-4.52;85.28
65470;DHT22;52067;50.710;14.492;2023-02-28T05:19:35;-4.58;86.09
65470;DHT22;52067;50.710;14.492;2023-02-28T05:22:00;-4.69;86.84
65470;DHT22;52067;50.710;14.492;2023-02-28T05:24:26;-4.55;87.75
65470;DHT22;52067;50.710;14.492;2023-02-28T05:26:53;-4.48;88.04
65470;DHT22;52067;50.710;14.492;2023-02-28T05:29:18;-4.43;87.82
65470;DHT22;52067;50.710;14.492;2023-02-28T05:31:44;-4.40;87.49
65470;DHT22;52067;50.710;14.492;2023-02-28T05:34:10;-4.47;87.71
65470;DHT22;52067;50.710;14.492;2023-02-28T05:36:37;-4.43;88.09
65470;DHT22;52067;50.710;14.492;2023-02-28T05:39:05;-4.45;88.19
65470;DHT22;52067;50.710;14.492;2023-02-28T05:41:30;-4.45;88.04
65470;DHT22;52067;50.710;14.492;2023-02-28T05:43:57;-4.44;88.03
65470;DHT22;52067;50.710;14.492;2023-02-28T05:46:23;-4.45;88.00
65470;DHT22;52067;50.710;14.492;2023-02-28T05:48:48;-4.47;87.71
65470;DHT22;52067;50.710;14.492;2023-02-28T05:51:14;-4.44;87.82
65470;DHT22;52067;50.710;14.492;2023-02-28T05:53:39;-4.37;87.68
65470;DHT22;52067;50.710;14.492;2023-02-28T05:56:05;-4.37;87.18
65470;DHT22;52067;50.710;14.492;2023-02-28T05:58:31;-4.43;86.78
65470;DHT22;52067;50.710;14.492;2023-02-28T06:01:00;-4.41;87.02
65470;DHT22;52067;50.710;14.492;2023-02-28T06:03:43;-4.38;87.16
65470;DHT22;52067;50.710;14.492;2023-02-28T06:06:08;-4.37;87.19
65470;DHT22;52067;50.710;14.492;2023-02-28T06:08:34;-4.43;86.92
65470;DHT22;52067;50.710;14.492;2023-02-28T06:11:03;-4.30;87.06
65470;DHT22;52067;50.710;14.492;2023-02-28T06:13:28;-4.31;87.04
65470;DHT22;52067;50.710;14.492;2023-02-28T06:15:54;-4.24;86.76
65470;DHT22;52067;50.710;14.492;2023-02-28T06:18:19;-4.25;86.43
65470;DHT22;52067;50.710;14.492;2023-02-28T06:20:52;-4.31;86.27
65470;DHT22;52067;50.710;14.492;2023-02-28T06:23:19;-4.24;86.36
65470;DHT22;52067;50.710;14.492;2023-02-28T06:25:45;-4.38;86.12
65470;DHT22;52067;50.710;14.492;2023-02-28T06:28:11;-4.35;87.00
65470;DHT22;52067;50.710;14.492;2023-02-28T06:30:37;-4.27;87.04
65470;DHT22;52067;50.710;14.492;2023-02-28T06:33:02;-4.27;86.81
65470;DHT22;52067;50.710;14.492;2023-02-28T06:35:28;-4.18;86.44
65470;DHT22;52067;50.710;14.492;2023-02-28T06:37:54;-4.06;86.64
65470;DHT22;52067;50.710;14.492;2023-02-28T06:40:20;-3.92;86.54
65470;DHT22;52067;50.710;14.492;2023-02-28T06:42:45;-3.82;86.07
65470;DHT22;52067;50.710;14.492;2023-02-28T06:45:11;-3.79;85.38
65470;DHT22;52067;50.710;14.492;2023-02-28T06:47:38;-3.69;85.08
65470;DHT22;52067;50.710;14.492;2023-02-28T06:50:05;-3.75;85.43
65470;DHT22;52067;50.710;14.492;2023-02-28T06:52:31;-3.69;85.48
65470;DHT22;52067;50.710;14.492;2023-02-28T06:54:56;-3.61;85.59
65470;DHT22;52067;50.710;14.492;2023-02-28T06:57:32;-3.45;85.08
65470;DHT22;52067;50.710;14.492;2023-02-28T06:59:59;-3.58;85.24
65470;DHT22;52067;50.710;14.492;2023-02-28T07:02:25;-3.41;85.48
65470;DHT22;52067;50.710;14.492;2023-02-28T07:04:51;-3.18;85.24
65470;DHT22;52067;50.710;14.492;2023-02-28T07:07:16;-3.10;85.07
65470;DHT22;52067;50.710;14.492;2023-02-28T07:09:42;-2.99;84.68
65470;DHT22;52067;50.710;14.492;2023-02-28T07:12:07;-2.90;84.81
65470;DHT22;52067;50.710;14.492;2023-02-28T07:14:32;-2.82;84.87
65470;DHT22;52067;50.710;14.492;2023-02-28T07:16:58;-2.69;84.84
65470;DHT22;52067;50.710;14.492;2023-02-28T07:19:23;-2.49;84.14
65470;DHT22;52067;50.710;14.492;2023-02-28T07:21:48;-2.27;83.37
65470;DHT22;52067;50.710;14.492;2023-02-28T07:24:14;-2.17;82.94
65470;DHT22;52067;50.710;14.492;2023-02-28T07:26:41;-2.03;82.45
65470;DHT22;52067;50.710;14.492;2023-02-28T07:29:06;-2.08;81.89
65470;DHT22;52067;50.710;14.492;2023-02-28T07:31:32;-1.85;82.08
65470;DHT22;52067;50.710;14.492;2023-02-28T07:33:57;-1.82;79.91
65470;DHT22;52067;50.710;14.492;2023-02-28T07:36:23;-1.72;80.17
65470;DHT22;52067;50.710;14.492;2023-02-28T07:38:48;-1.66;79.82
65470;DHT22;52067;50.710;14.492;2023-02-28T07:41:19;-1.56;79.82
65470;DHT22;52067;50.710;14.492;2023-02-28T07:43:45;-1.51;79.20
65470;DHT22;52067;50.710;14.492;2023-02-28T07:46:13;-1.42;78.15
65470;DHT22;52067;50.710;14.492;2023-02-28T07:48:42;-1.32;77.03
65470;DHT22;52067;50.710;14.492;2023-02-28T07:51:08;-1.12;77.74
65470;DHT22;52067;50.710;14.492;2023-02-28T07:53:34;-0.88;75.95
65470;DHT22;52067;50.710;14.492;2023-02-28T07:56:00;-0.69;77.53
65470;DHT22;52067;50.710;14.492;2023-02-28T07:58:27;-0.56;72.60
65470;DHT22;52067;50.710;14.492;2023-02-28T08:00:53;-0.53;72.24
65470;DHT22;52067;50.710;14.492;2023-02-28T08:03:19;-0.42;72.40
65470;DHT22;52067;50.710;14.492;2023-02-28T08:05:46;-0.18;74.45
65470;DHT22;52067;50.710;14.492;2023-02-28T08:08:13;-0.07;70.67
65470;DHT22;52067;50.710;14.492;2023-02-28T08:10:38;-0.04;69.39
65470;DHT22;52067;50.710;14.492;2023-02-28T08:13:04;-0.02;69.03
65470;DHT22;52067;50.710;14.492;2023-02-28T08:15:29;0.10;70.79
65470;DHT22;52067;50.710;14.492;2023-02-28T08:17:54;0.16;68.30
65470;DHT22;52067;50.710;14.492;2023-02-28T08:20:22;0.20;68.23
65470;DHT22;52067;50.710;14.492;2023-02-28T08:22:48;0.29;67.65
65470;DHT22;52067;50.710;14.492;2023-02-28T08:25:13;0.27;65.26
65470;DHT22;52067;50.710;14.492;2023-02-28T08:27:39;0.31;65.41
65470;DHT22;52067;50.710;14.492;2023-02-28T08:30:05;0.27;62.90
65470;DHT22;52067;50.710;14.492;2023-02-28T08:32:32;0.50;67.02
65470;DHT22;52067;50.710;14.492;2023-02-28T08:34:58;0.60;65.29
65470;DHT22;52067;50.710;14.492;2023-02-28T08:37:24;0.70;66.02
65470;DHT22;52067;50.710;14.492;2023-02-28T08:39:49;0.78;63.54
65470;DHT22;52067;50.710;14.492;2023-02-28T08:42:15;0.84;63.17
65470;DHT22;52067;50.710;14.492;2023-02-28T08:44:40;0.81;63.59
65470;DHT22;52067;50.710;14.492;2023-02-28T08:47:06;0.75;63.82
65470;DHT22;52067;50.710;14.492;2023-02-28T08:49:31;0.75;62.28
65470;DHT22;52067;50.710;14.492;2023-02-28T08:51:56;1.08;63.62
65470;DHT22;52067;50.710;14.492;2023-02-28T08:54:23;1.28;61.05
65470;DHT22;52067;50.710;14.492;2023-02-28T08:56:48;0.95;61.58
65470;DHT22;52067;50.710;14.492;2023-02-28T08:59:13;0.87;60.56
65470;DHT22;52067;50.710;14.492;2023-02-28T09:01:39;1.02;62.97
65470;DHT22;52067;50.710;14.492;2023-02-28T09:04:06;1.19;61.52
65470;DHT22;52067;50.710;14.492;2023-02-28T09:06:34;1.43;59.60
65470;DHT22;52067;50.710;14.492;2023-02-28T09:08:59;1.43;59.10
65470;DHT22;52067;50.710;14.492;2023-02-28T09:11:26;1.54;58.21
65470;DHT22;52067;50.710;14.492;2023-02-28T09:13:52;1.54;60.00
65470;DHT22;52067;50.710;14.492;2023-02-28T09:16:18;1.77;59.96
65470;DHT22;52067;50.710;14.492;2023-02-28T09:18:44;1.81;56.56
65470;DHT22;52067;50.710;14.492;2023-02-28T09:21:15;1.68;60.88
65470;DHT22;52067;50.710;14.492;2023-02-28T09:23:42;1.59;59.74
65470;DHT22;52067;50.710;14.492;2023-02-28T09:26:15;1.98;58.93
65470;DHT22;52067;50.710;14.492;2023-02-28T09:28:41;2.09;57.25
65470;DHT22;52067;50.710;14.492;2023-02-28T09:31:12;2.18;57.50
65470;DHT22;52067;50.710;14.492;2023-02-28T09:33:38;2.64;57.39
65470;DHT22;52067;50.710;14.492;2023-02-28T09:36:04;3.25;55.52
65470;DHT22;52067;50.710;14.492;2023-02-28T09:38:29;3.60;54.65
65470;DHT22;52067;50.710;14.492;2023-02-28T09:41:01;5.85;46.80
65470;DHT22;52067;50.710;14.492;2023-02-28T09:43:42;5.00;46.36
65470;DHT22;52067;50.710;14.492;2023-02-28T09:46:37;6.11;46.50
65470;DHT22;52067;50.710;14.492;2023-02-28T09:49:07;8.63;39.06
65470;DHT22;52067;50.710;14.492;2023-02-28T09:54:22;6.36;43.72
65470;DHT22;52067;50.710;14.492;2023-02-28T09:56:50;6.95;44.22
65470;DHT22;52067;50.710;14.492;2023-02-28T10:04:59;5.68;44.72
65470;DHT22;52067;50.710;14.492;2023-02-28T10:10:39;8.12;37.33
65470;DHT22;52067;50.710;14.492;2023-02-28T10:13:52;8.84;36.33
65470;DHT22;52067;50.710;14.492;2023-02-28T10:16:25;6.61;43.82
65470;DHT22;52067;50.710;14.492;2023-02-28T10:21:44;9.05;36.59
65470;DHT22;52067;50.710;14.492;2023-02-28T10:24:27;10.00;34.66
65470;DHT22;52067;50.710;14.492;2023-02-28T10:27:00;8.80;36.88
65470;DHT22;52067;50.710;14.492;2023-02-28T10:29:27;9.31;38.76
65470;DHT22;52067;50.710;14.492;2023-02-28T10:31:53;10.00;36.63
65470;DHT22;52067;50.710;14.492;2023-02-28T10:34:18;9.76;34.17
65470;DHT22;52067;50.710;14.492;2023-02-28T10:36:44;9.19;38.00
65470;DHT22;52067;50.710;14.492;2023-02-28T10:39:35;9.55;36.00
65470;DHT22;52067;50.710;14.492;2023-02-28T10:42:02;10.15;34.35
65470;DHT22;52067;50.710;14.492;2023-02-28T10:44:27;7.53;36.52
65470;DHT22;52067;50.710;14.492;2023-02-28T10:46:53;9.10;35.90
65470;DHT22;52067;50.710;14.492;2023-02-28T10:49:28;9.19;35.44
65470;DHT22;52067;50.710;14.492;2023-02-28T10:51:56;6.51;38.91
65470;DHT22;52067;50.710;14.492;2023-02-28T10:54:32;9.15;35.81
65470;DHT22;52067;50.710;14.492;2023-02-28T10:57:23;8.16;36.53
65470;DHT22;52067;50.710;14.492;2023-02-28T11:00:17;11.01;34.43
65470;DHT22;52067;50.710;14.492;2023-02-28T11:02:43;10.88;33.08
65470;DHT22;52067;50.710;14.492;2023-02-28T11:05:31;10.72;36.07
65470;DHT22;52067;50.710;14.492;2023-02-28T11:08:06;9.57;34.90
65470;DHT22;52067;50.710;14.492;2023-02-28T11:10:36;10.10;33.91
65470;DHT22;52067;50.710;14.492;2023-02-28T11:13:02;10.01;34.75
65470;DHT22;52067;50.710;14.492;2023-02-28T11:15:37;8.09;38.94
65470;DHT22;52067;50.710;14.492;2023-02-28T11:20:38;8.88;36.92
65470;DHT22;52067;50.710;14.492;2023-02-28T11:23:04;8.74;36.98
65470;DHT22;52067;50.710;14.492;2023-02-28T11:25:33;9.87;35.33
65470;DHT22;52067;50.710;14.492;2023-02-28T11:28:04;10.41;33.76
65470;DHT22;52067;50.710;14.492;2023-02-28T11:30:39;11.13;33.26
65470;DHT22;52067;50.710;14.492;2023-02-28T11:33:29;11.13;33.42
65470;DHT22;52067;50.710;14.492;2023-02-28T11:36:02;11.40;30.57
65470;DHT22;52067;50.710;14.492;2023-02-28T11:38:28;11.44;34.63
65470;DHT22;52067;50.710;14.492;2023-02-28T11:58:05;9.69;35.52
65470;DHT22;52067;50.710;14.492;2023-02-28T12:03:49;8.15;37.95
65470;DHT22;52067;50.710;14.492;2023-02-28T12:06:33;11.44;31.44
65470;DHT22;52067;50.710;14.492;2023-02-28T12:17:50;12.32;29.97
65470;DHT22;52067;50.710;14.492;2023-02-28T12:23:17;8.77;35.49
65470;DHT22;52067;50.710;14.492;2023-02-28T12:28:44;9.94;34.88
65470;DHT22;52067;50.710;14.492;2023-02-28T12:31:20;10.11;34.76
65470;DHT22;52067;50.710;14.492;2023-02-28T12:33:58;10.28;32.75
65470;DHT22;52067;50.710;14.492;2023-02-28T12:36:24;9.89;32.74
65470;DHT22;52067;50.710;14.492;2023-02-28T12:39:03;10.32;32.57
65470;DHT22;52067;50.710;14.492;2023-02-28T12:41:42;10.79;35.40
65470;DHT22;52067;50.710;14.492;2023-02-28T12:44:15;8.77;40.22
65470;DHT22;52067;50.710;14.492;2023-02-28T12:46:45;11.28;32.95
65470;DHT22;52067;50.710;14.492;2023-02-28T12:49:21;8.50;34.29
65470;DHT22;52067;50.710;14.492;2023-02-28T12:51:50;10.34;34.37
65470;DHT22;52067;50.710;14.492;2023-02-28T12:54:24;9.32;33.20
65470;DHT22;52067;50.710;14.492;2023-02-28T12:57:22;11.77;32.65
65470;DHT22;52067;50.710;14.492;2023-02-28T13:00:09;10.49;34.50
65470;DHT22;52067;50.710;14.492;2023-02-28T13:08:20;10.77;33.28
65470;DHT22;52067;50.710;14.492;2023-02-28T13:10:50;11.88;30.78
65470;DHT22;52067;50.710;14.492;2023-02-28T13:13:27;9.57;34.25
65470;DHT22;52067;50.710;14.492;2023-02-28T13:16:05;10.88;32.54
65470;DHT22;52067;50.710;14.492;2023-02-28T13:18:43;11.19;29.83
65470;DHT22;52067;50.710;14.492;2023-02-28T13:21:22;10.84;32.76
65470;DHT22;52067;50.710;14.492;2023-02-28T13:26:21;9.40;35.79
65470;DHT22;52067;50.710;14.492;2023-02-28T13:31:21;10.68;33.18
65470;DHT22;52067;50.710;14.492;2023-02-28T13:38:43;9.76;33.82
65470;DHT22;52067;50.710;14.492;2023-02-28T13:44:16;9.97;36.16
65470;DHT22;52067;50.710;14.492;2023-02-28T13:47:20;11.01;34.50
65470;DHT22;52067;50.710;14.492;2023-02-28T13:49:46;11.40;33.48
65470;DHT22;52067;50.710;14.492;2023-02-28T13:52:17;11.48;33.14
65470;DHT22;52067;50.710;14.492;2023-02-28T14:05:36;11.75;34.48
65470;DHT22;52067;50.710;14.492;2023-02-28T14:08:11;11.03;35.70
65470;DHT22;52067;50.710;14.492;2023-02-28T14:10:44;11.48;34.53
65470;DHT22;52067;50.710;14.492;2023-02-28T14:15:46;8.02;41.81
65470;DHT22;52067;50.710;14.492;2023-02-28T14:20:40;10.48;35.59
65470;DHT22;52067;50.710;14.492;2023-02-28T14:25:47;8.74;39.18
65470;DHT22;52067;50.710;14.492;2023-02-28T14:28:19;10.10;36.53
65470;DHT22;52067;50.710;14.492;2023-02-28T14:30:52;9.22;39.58
65470;DHT22;52067;50.710;14.492;2023-02-28T14:33:25;8.01;40.59
65470;DHT22;52067;50.710;14.492;2023-02-28T14:38:56;8.02;40.82
65470;DHT22;52067;50.710;14.492;2023-02-28T14:41:29;8.70;38.87
65470;DHT22;52067;50.710;14.492;2023-02-28T14:43:58;8.95;40.06
65470;DHT22;52067;50.710;14.492;2023-02-28T14:46:34;8.21;40.76
65470;DHT22;52067;50.710;14.492;2023-02-28T14:49:01;6.71;43.39
65470;DHT22;52067;50.710;14.492;2023-02-28T14:51:26;7.98;42.14
65470;DHT22;52067;50.710;14.492;2023-02-28T14:53:57;7.61;41.74
65470;DHT22;52067;50.710;14.492;2023-02-28T14:56:30;8.57;40.85
65470;DHT22;52067;50.710;14.492;2023-02-28T14:58:58;6.65;42.41
65470;DHT22;52067;50.710;14.492;2023-02-28T15:01:25;8.32;40.54
65470;DHT22;52067;50.710;14.492;2023-02-28T15:04:18;7.03;41.75
65470;DHT22;52067;50.710;14.492;2023-02-28T15:06:46;6.30;45.79
65470;DHT22;52067;50.710;14.492;2023-02-28T15:09:16;5.79;46.89
65470;DHT22;52067;50.710;14.492;2023-02-28T15:11:46;7.13;42.95
65470;DHT22;52067;50.710;14.492;2023-02-28T15:14:18;7.84;41.25
65470;DHT22;52067;50.710;14.492;2023-02-28T15:16:47;7.63;42.55
65470;DHT22;52067;50.710;14.492;2023-02-28T15:19:32;7.16;42.79
65470;DHT22;52067;50.710;14.492;2023-02-28T15:22:02;7.09;43.53
65470;DHT22;52067;50.710;14.492;2023-02-28T15:27:02;6.11;44.94
65470;DHT22;52067;50.710;14.492;2023-02-28T15:29:29;5.45;46.94
65470;DHT22;52067;50.710;14.492;2023-02-28T15:32:00;5.04;48.67
65470;DHT22;52067;50.710;14.492;2023-02-28T15:34:37;4.05;52.91
65470;DHT22;52067;50.710;14.492;2023-02-28T15:37:27;3.82;52.76
65470;DHT22;52067;50.710;14.492;2023-02-28T15:39:56;4.38;51.58
65470;DHT22;52067;50.710;14.492;2023-02-28T15:42:28;3.76;53.52
65470;DHT22;52067;50.710;14.492;2023-02-28T15:44:54;3.90;52.09
65470;DHT22;52067;50.710;14.492;2023-02-28T15:47:22;3.76;53.41
65470;DHT22;52067;50.710;14.492;2023-02-28T15:49:51;4.11;53.05
65470;DHT22;52067;50.710;14.492;2023-02-28T15:52:21;4.05;53.61
65470;DHT22;52067;50.710;14.492;2023-02-28T15:54:48;4.11;52.90
65470;DHT22;52067;50.710;14.492;2023-02-28T15:57:20;3.70;52.52
65470;DHT22;52067;50.710;14.492;2023-02-28T15:59:52;3.95;53.39
65470;DHT22;52067;50.710;14.492;2023-02-28T16:02:21;3.93;52.21
65470;DHT22;52067;50.710;14.492;2023-02-28T16:07:27;3.55;53.95
65470;DHT22;52067;50.710;14.492;2023-02-28T16:09:53;3.35;55.07
65470;DHT22;52067;50.710;14.492;2023-02-28T16:12:19;3.14;56.35
65470;DHT22;52067;50.710;14.492;2023-02-28T16:14:52;2.83;57.43
65470;DHT22;52067;50.710;14.492;2023-02-28T16:17:27;2.76;57.97
65470;DHT22;52067;50.710;14.492;2023-02-28T16:19:54;2.57;57.58
65470;DHT22;52067;50.710;14.492;2023-02-28T16:22:20;2.66;57.83
65470;DHT22;52067;50.710;14.492;2023-02-28T16:24:45;2.47;58.36
65470;DHT22;52067;50.710;14.492;2023-02-28T16:29:42;2.58;58.88
65470;DHT22;52067;50.710;14.492;2023-02-28T16:32:07;2.28;59.61
65470;DHT22;52067;50.710;14.492;2023-02-28T16:34:33;2.28;59.78
65470;DHT22;52067;50.710;14.492;2023-02-28T16:36:58;2.19;60.12
65470;DHT22;52067;50.710;14.492;2023-02-28T16:39:24;2.19;61.28
65470;DHT22;52067;50.710;14.492;2023-02-28T16:41:50;2.08;61.54
65470;DHT22;52067;50.710;14.492;2023-02-28T16:44:30;2.18;61.00
65470;DHT22;52067;50.710;14.492;2023-02-28T16:46:56;2.01;61.60
65470;DHT22;52067;50.710;14.492;2023-02-28T16:49:24;2.07;61.09
65470;DHT22;52067;50.710;14.492;2023-02-28T16:51:49;1.67;62.05
65470;DHT22;52067;50.710;14.492;2023-02-28T16:54:15;1.63;62.67
65470;DHT22;52067;50.710;14.492;2023-02-28T16:56:43;1.74;62.92
65470;DHT22;52067;50.710;14.492;2023-02-28T16:59:10;1.73;62.31
65470;DHT22;52067;50.710;14.492;2023-02-28T17:01:36;1.81;61.61
65470;DHT22;52067;50.710;14.492;2023-02-28T17:04:01;1.50;62.89
65470;DHT22;52067;50.710;14.492;2023-02-28T17:06:28;1.78;61.99
65470;DHT22;52067;50.710;14.492;2023-02-28T17:08:54;1.74;62.78
65470;DHT22;52067;50.710;14.492;2023-02-28T17:11:20;1.47;64.30
65470;DHT22;52067;50.710;14.492;2023-02-28T17:13:46;1.51;63.97
65470;DHT22;52067;50.710;14.492;2023-02-28T17:16:20;1.42;64.75
65470;DHT22;52067;50.710;14.492;2023-02-28T17:18:47;1.53;62.45
65470;DHT22;52067;50.710;14.492;2023-02-28T17:21:15;1.60;62.70
65470;DHT22;52067;50.710;14.492;2023-02-28T17:23:41;1.54;63.31
65470;DHT22;52067;50.710;14.492;2023-02-28T17:26:06;1.67;62.88
65470;DHT22;52067;50.710;14.492;2023-02-28T17:28:32;1.44;63.91
65470;DHT22;52067;50.710;14.492;2023-02-28T17:30:57;1.44;62.89
65470;DHT22;52067;50.710;14.492;2023-02-28T17:33:23;1.47;64.11
65470;DHT22;52067;50.710;14.492;2023-02-28T17:35:48;1.51;63.34
65470;DHT22;52067;50.710;14.492;2023-02-28T17:38:16;1.19;65.33